< < Back
Terminal Aerodrome Forecast


Current Version              Previous Versions:   1  2  3  4  5  6  7  8  9  

Terminal Aerodrome Forecast

226
FTUS42 KMLB 171100
TAFDAB
TAF
KDAB 171125Z 1712/1812 23004KT P6SM FEW015 SCT050 OVC200
     FM171400 27008KT P6SM VCSH SCT025 SCT120 BKN250
     FM171800 29012KT P6SM VCTS SCT030CB BKN060
     FM180000 32004KT P6SM VCSH BKN040 OVC080=

Latest METAR

757
SAUS80 KWBC 180700 CCA
MTRDAB
METAR KDAB 180653Z 21003KT 10SM CLR 22/21 A2989 RMK AO2 SLP121
T02170211


USA.gov is the U.S. government's official web portal to all federal, state and local government web resources and services.